Sumerduck, Virginia
Current Conditions -  °F | °C
As of 11:15 AM on Saturday 25 Oct 2014 (Local Time) from KHWY Reporting Station
Clear Clear  
Wind Chill: 64°   Ceiling: Unl
Heat Index: 64°   Visibility: 10mi
Dew Point: 49°   Wind: 7mph
Humidity: 58%   Direction: 210°SSW
Pressure: 29.95"   Gusts: NA
Location:  38.47°N, 77.71°W
Report Text: KHWY 251515Z AUTO 21006KT 10SM CLR 18/10 A2995 RMK AO2 T01800096
Loading
Personal Weather Stations






























Interactive Weather Map
Tropical Storm Tracking
New forecast layout! Learn more

10-Day Weather Forecast

Advertisements
Track Severe Weather on mobile